West Crossett, Arkansas
Current Conditions -  °F | °C
As of 1:15 PM on Monday 20 Oct 2014 (Local Time) from KBQP Reporting Station
Clear Clear  
Wind Chill: 73°   Ceiling: Unl
Heat Index: 73°   Visibility: 10mi
Dew Point: 50°   Wind: 5mph
Humidity: 44%   Direction: 300°WNW
Pressure: 30.08"   Gusts: NA
Location:  33.1917°N, 91.9836°W
Report Text: KBQP 201815Z AUTO 30004KT 10SM CLR 23/10 A3008 RMK AO2 T02280098
Loading
Personal Weather Stations






























Interactive Weather Map
Tropical Storm Tracking
New forecast layout! Learn more

10-Day Weather Forecast

Advertisements
Track Severe Weather on mobile